sensor_id;sensor_type;location;lat;lon;timestamp;P1;durP1;ratioP1;P2;durP2;ratioP2
2001;SDS011;1003;48.002;7.788;2023-04-06T00:00:50;5.07;;;3.93;;
2001;SDS011;1003;48.002;7.788;2023-04-06T00:03:18;7.50;;;3.67;;
2001;SDS011;1003;48.002;7.788;2023-04-06T00:05:46;4.50;;;3.30;;
2001;SDS011;1003;48.002;7.788;2023-04-06T00:08:16;6.77;;;3.40;;
2001;SDS011;1003;48.002;7.788;2023-04-06T00:10:43;5.57;;;3.77;;
2001;SDS011;1003;48.002;7.788;2023-04-06T00:13:10;4.53;;;3.53;;
2001;SDS011;1003;48.002;7.788;2023-04-06T00:15:37;5.43;;;3.60;;
2001;SDS011;1003;48.002;7.788;2023-04-06T00:18:05;4.73;;;3.60;;
2001;SDS011;1003;48.002;7.788;2023-04-06T00:20:32;6.40;;;3.83;;
2001;SDS011;1003;48.002;7.788;2023-04-06T00:22:59;5.47;;;3.80;;
2001;SDS011;1003;48.002;7.788;2023-04-06T00:25:28;6.23;;;3.87;;
2001;SDS011;1003;48.002;7.788;2023-04-06T00:27:55;5.77;;;3.47;;
2001;SDS011;1003;48.002;7.788;2023-04-06T00:30:22;5.23;;;3.50;;
2001;SDS011;1003;48.002;7.788;2023-04-06T00:32:52;5.40;;;3.90;;
2001;SDS011;1003;48.002;7.788;2023-04-06T00:35:19;6.77;;;3.70;;
2001;SDS011;1003;48.002;7.788;2023-04-06T00:37:46;6.23;;;3.83;;
2001;SDS011;1003;48.002;7.788;2023-04-06T00:40:14;6.43;;;3.67;;
2001;SDS011;1003;48.002;7.788;2023-04-06T00:42:43;5.30;;;3.73;;
2001;SDS011;1003;48.002;7.788;2023-04-06T00:45:10;5.23;;;3.60;;
2001;SDS011;1003;48.002;7.788;2023-04-06T00:47:37;5.80;;;3.80;;
2001;SDS011;1003;48.002;7.788;2023-04-06T00:50:05;5.53;;;3.60;;
2001;SDS011;1003;48.002;7.788;2023-04-06T00:52:33;3.73;;;3.07;;
2001;SDS011;1003;48.002;7.788;2023-04-06T00:55:02;6.73;;;3.77;;
2001;SDS011;1003;48.002;7.788;2023-04-06T00:57:31;4.67;;;3.50;;
2001;SDS011;1003;48.002;7.788;2023-04-06T00:59:59;4.80;;;3.67;;
2001;SDS011;1003;48.002;7.788;2023-04-06T01:02:27;4.37;;;3.80;;
2001;SDS011;1003;48.002;7.788;2023-04-06T01:04:55;4.33;;;3.20;;
2001;SDS011;1003;48.002;7.788;2023-04-06T01:07:22;5.37;;;3.60;;
2001;SDS011;1003;48.002;7.788;2023-04-06T01:09:50;5.70;;;3.60;;
2001;SDS011;1003;48.002;7.788;2023-04-06T01:12:19;6.47;;;3.70;;
2001;SDS011;1003;48.002;7.788;2023-04-06T01:14:46;3.97;;;3.30;;
2001;SDS011;1003;48.002;7.788;2023-04-06T01:17:15;4.70;;;3.60;;
2001;SDS011;1003;48.002;7.788;2023-04-06T01:19:42;4.97;;;3.47;;
2001;SDS011;1003;48.002;7.788;2023-04-06T01:22:14;6.00;;;3.30;;
2001;SDS011;1003;48.002;7.788;2023-04-06T01:24:42;5.43;;;3.30;;
2001;SDS011;1003;48.002;7.788;2023-04-06T01:27:09;4.60;;;3.17;;
2001;SDS011;1003;48.002;7.788;2023-04-06T01:29:36;5.27;;;3.57;;
2001;SDS011;1003;48.002;7.788;2023-04-06T01:32:06;5.23;;;3.70;;
2001;SDS011;1003;48.002;7.788;2023-04-06T01:34:33;4.63;;;3.47;;
2001;SDS011;1003;48.002;7.788;2023-04-06T01:37:00;7.90;;;3.90;;
2001;SDS011;1003;48.002;7.788;2023-04-06T01:39:29;5.70;;;3.63;;
2001;SDS011;1003;48.002;7.788;2023-04-06T01:41:57;4.80;;;3.40;;
2001;SDS011;1003;48.002;7.788;2023-04-06T01:44:24;6.50;;;3.73;;
2001;SDS011;1003;48.002;7.788;2023-04-06T01:46:51;5.17;;;3.30;;
2001;SDS011;1003;48.002;7.788;2023-04-06T01:49:18;4.40;;;3.40;;
2001;SDS011;1003;48.002;7.788;2023-04-06T01:51:45;6.37;;;3.53;;
2001;SDS011;1003;48.002;7.788;2023-04-06T01:54:13;5.33;;;4.00;;
2001;SDS011;1003;48.002;7.788;2023-04-06T01:56:41;6.23;;;3.90;;
2001;SDS011;1003;48.002;7.788;2023-04-06T01:59:08;4.73;;;3.47;;
2001;SDS011;1003;48.002;7.788;2023-04-06T02:01:35;4.10;;;3.30;;
2001;SDS011;1003;48.002;7.788;2023-04-06T02:04:02;5.70;;;3.33;;
2001;SDS011;1003;48.002;7.788;2023-04-06T02:06:30;4.63;;;3.27;;
2001;SDS011;1003;48.002;7.788;2023-04-06T02:08:57;5.57;;;3.53;;
2001;SDS011;1003;48.002;7.788;2023-04-06T02:11:24;4.13;;;3.27;;
2001;SDS011;1003;48.002;7.788;2023-04-06T02:13:52;5.47;;;3.70;;
2001;SDS011;1003;48.002;7.788;2023-04-06T02:16:20;3.93;;;3.00;;
2001;SDS011;1003;48.002;7.788;2023-04-06T02:18:49;4.33;;;3.53;;
2001;SDS011;1003;48.002;7.788;2023-04-06T02:21:16;4.97;;;3.57;;
2001;SDS011;1003;48.002;7.788;2023-04-06T02:23:45;5.70;;;3.60;;
2001;SDS011;1003;48.002;7.788;2023-04-06T02:26:12;5.33;;;3.57;;
2001;SDS011;1003;48.002;7.788;2023-04-06T02:28:39;4.97;;;3.53;;
2001;SDS011;1003;48.002;7.788;2023-04-06T02:31:08;4.63;;;3.73;;
2001;SDS011;1003;48.002;7.788;2023-04-06T02:33:36;4.87;;;3.47;;
2001;SDS011;1003;48.002;7.788;2023-04-06T02:36:03;6.23;;;4.10;;
2001;SDS011;1003;48.002;7.788;2023-04-06T02:38:30;6.27;;;3.77;;
2001;SDS011;1003;48.002;7.788;2023-04-06T02:40:58;4.20;;;3.40;;
2001;SDS011;1003;48.002;7.788;2023-04-06T02:43:25;5.53;;;3.77;;
2001;SDS011;1003;48.002;7.788;2023-04-06T02:45:52;4.63;;;3.47;;
2001;SDS011;1003;48.002;7.788;2023-04-06T02:48:21;7.00;;;3.80;;
2001;SDS011;1003;48.002;7.788;2023-04-06T02:50:48;6.80;;;3.77;;
2001;SDS011;1003;48.002;7.788;2023-04-06T02:53:15;6.40;;;3.80;;
2001;SDS011;1003;48.002;7.788;2023-04-06T02:55:43;4.67;;;3.57;;
2001;SDS011;1003;48.002;7.788;2023-04-06T02:58:10;5.10;;;3.60;;
2001;SDS011;1003;48.002;7.788;2023-04-06T03:00:37;4.43;;;3.30;;
2001;SDS011;1003;48.002;7.788;2023-04-06T03:03:04;6.03;;;3.50;;
2001;SDS011;1003;48.002;7.788;2023-04-06T03:05:33;5.40;;;3.60;;
2001;SDS011;1003;48.002;7.788;2023-04-06T03:08:01;5.27;;;3.50;;
2001;SDS011;1003;48.002;7.788;2023-04-06T03:10:28;5.87;;;3.80;;
2001;SDS011;1003;48.002;7.788;2023-04-06T03:12:55;5.10;;;3.60;;
2001;SDS011;1003;48.002;7.788;2023-04-06T03:15:22;8.50;;;4.20;;
2001;SDS011;1003;48.002;7.788;2023-04-06T03:17:49;4.33;;;3.00;;
2001;SDS011;1003;48.002;7.788;2023-04-06T03:20:16;4.73;;;3.53;;
2001;SDS011;1003;48.002;7.788;2023-04-06T03:22:45;5.70;;;3.70;;
2001;SDS011;1003;48.002;7.788;2023-04-06T03:25:12;5.23;;;3.60;;
2001;SDS011;1003;48.002;7.788;2023-04-06T03:27:42;5.10;;;3.40;;
2001;SDS011;1003;48.002;7.788;2023-04-06T03:30:10;5.33;;;3.83;;
2001;SDS011;1003;48.002;7.788;2023-04-06T03:32:37;6.27;;;3.63;;
2001;SDS011;1003;48.002;7.788;2023-04-06T03:35:05;4.03;;;3.57;;
2001;SDS011;1003;48.002;7.788;2023-04-06T03:37:33;5.37;;;3.40;;
2001;SDS011;1003;48.002;7.788;2023-04-06T03:40:02;8.10;;;3.80;;
2001;SDS011;1003;48.002;7.788;2023-04-06T03:42:30;4.60;;;3.20;;
2001;SDS011;1003;48.002;7.788;2023-04-06T03:44:57;5.40;;;3.80;;
2001;SDS011;1003;48.002;7.788;2023-04-06T03:47:25;6.93;;;3.60;;
2001;SDS011;1003;48.002;7.788;2023-04-06T03:49:52;6.27;;;3.97;;
2001;SDS011;1003;48.002;7.788;2023-04-06T03:52:20;6.73;;;3.63;;
2001;SDS011;1003;48.002;7.788;2023-04-06T03:54:48;4.67;;;3.27;;
2001;SDS011;1003;48.002;7.788;2023-04-06T03:57:17;5.87;;;3.53;;
2001;SDS011;1003;48.002;7.788;2023-04-06T03:59:44;4.90;;;3.47;;
2001;SDS011;1003;48.002;7.788;2023-04-06T04:02:12;4.23;;;3.20;;
2001;SDS011;1003;48.002;7.788;2023-04-06T04:04:39;5.27;;;3.50;;
2001;SDS011;1003;48.002;7.788;2023-04-06T04:07:06;4.83;;;3.67;;
2001;SDS011;1003;48.002;7.788;2023-04-06T04:09:36;4.63;;;3.37;;
2001;SDS011;1003;48.002;7.788;2023-04-06T04:12:04;5.90;;;3.90;;
2001;SDS011;1003;48.002;7.788;2023-04-06T04:14:33;5.20;;;3.70;;
2001;SDS011;1003;48.002;7.788;2023-04-06T04:17:00;5.70;;;3.30;;
2001;SDS011;1003;48.002;7.788;2023-04-06T04:19:27;4.80;;;3.10;;
2001;SDS011;1003;48.002;7.788;2023-04-06T04:21:54;3.80;;;3.10;;
2001;SDS011;1003;48.002;7.788;2023-04-06T04:24:21;5.53;;;3.40;;
2001;SDS011;1003;48.002;7.788;2023-04-06T04:26:48;5.57;;;3.53;;
2001;SDS011;1003;48.002;7.788;2023-04-06T04:29:16;6.00;;;3.50;;
2001;SDS011;1003;48.002;7.788;2023-04-06T04:31:47;5.77;;;3.77;;
2001;SDS011;1003;48.002;7.788;2023-04-06T04:34:14;4.90;;;3.53;;
2001;SDS011;1003;48.002;7.788;2023-04-06T04:36:42;4.57;;;3.33;;
2001;SDS011;1003;48.002;7.788;2023-04-06T04:39:09;5.80;;;3.60;;
2001;SDS011;1003;48.002;7.788;2023-04-06T04:41:36;6.60;;;3.20;;
2001;SDS011;1003;48.002;7.788;2023-04-06T04:44:03;5.23;;;3.70;;
2001;SDS011;1003;48.002;7.788;2023-04-06T04:46:30;5.10;;;3.63;;
2001;SDS011;1003;48.002;7.788;2023-04-06T04:48:59;5.43;;;3.70;;
2001;SDS011;1003;48.002;7.788;2023-04-06T04:51:26;6.70;;;3.70;;
2001;SDS011;1003;48.002;7.788;2023-04-06T04:53:53;6.97;;;3.50;;
2001;SDS011;1003;48.002;7.788;2023-04-06T04:56:20;5.93;;;3.57;;
2001;SDS011;1003;48.002;7.788;2023-04-06T04:58:48;6.43;;;3.33;;
2001;SDS011;1003;48.002;7.788;2023-04-06T05:01:15;4.47;;;3.60;;
2001;SDS011;1003;48.002;7.788;2023-04-06T05:03:42;4.23;;;3.40;;
2001;SDS011;1003;48.002;7.788;2023-04-06T05:06:10;4.63;;;3.30;;
2001;SDS011;1003;48.002;7.788;2023-04-06T05:08:37;4.67;;;3.50;;
2001;SDS011;1003;48.002;7.788;2023-04-06T05:11:05;4.80;;;3.30;;
2001;SDS011;1003;48.002;7.788;2023-04-06T05:13:32;5.13;;;3.40;;
2001;SDS011;1003;48.002;7.788;2023-04-06T05:15:59;4.23;;;3.17;;
2001;SDS011;1003;48.002;7.788;2023-04-06T05:18:26;5.20;;;3.60;;
2001;SDS011;1003;48.002;7.788;2023-04-06T05:20:54;5.67;;;3.90;;
2001;SDS011;1003;48.002;7.788;2023-04-06T05:23:23;4.70;;;3.63;;
2001;SDS011;1003;48.002;7.788;2023-04-06T05:25:50;4.97;;;3.77;;
2001;SDS011;1003;48.002;7.788;2023-04-06T05:28:17;6.60;;;4.00;;
2001;SDS011;1003;48.002;7.788;2023-04-06T05:30:45;7.57;;;4.03;;
2001;SDS011;1003;48.002;7.788;2023-04-06T05:33:12;5.50;;;3.80;;
2001;SDS011;1003;48.002;7.788;2023-04-06T05:35:39;5.77;;;3.80;;
2001;SDS011;1003;48.002;7.788;2023-04-06T05:38:07;7.77;;;4.17;;
2001;SDS011;1003;48.002;7.788;2023-04-06T05:40:37;5.70;;;4.20;;
2001;SDS011;1003;48.002;7.788;2023-04-06T05:43:06;6.20;;;4.30;;
2001;SDS011;1003;48.002;7.788;2023-04-06T05:45:33;5.53;;;4.00;;
2001;SDS011;1003;48.002;7.788;2023-04-06T05:48:01;5.20;;;3.87;;
2001;SDS011;1003;48.002;7.788;2023-04-06T05:50:28;4.30;;;3.30;;
2001;SDS011;1003;48.002;7.788;2023-04-06T05:52:55;6.23;;;3.97;;
2001;SDS011;1003;48.002;7.788;2023-04-06T05:55:22;6.13;;;4.10;;
2001;SDS011;1003;48.002;7.788;2023-04-06T05:57:51;5.50;;;4.10;;
2001;SDS011;1003;48.002;7.788;2023-04-06T06:00:18;6.67;;;3.70;;
2001;SDS011;1003;48.002;7.788;2023-04-06T06:02:46;6.87;;;4.07;;
2001;SDS011;1003;48.002;7.788;2023-04-06T06:05:13;6.40;;;4.03;;
2001;SDS011;1003;48.002;7.788;2023-04-06T06:07:40;5.73;;;4.53;;
2001;SDS011;1003;48.002;7.788;2023-04-06T06:10:08;6.03;;;3.80;;
2001;SDS011;1003;48.002;7.788;2023-04-06T06:12:36;6.90;;;4.30;;
2001;SDS011;1003;48.002;7.788;2023-04-06T06:15:05;6.13;;;3.70;;
2001;SDS011;1003;48.002;7.788;2023-04-06T06:17:33;5.57;;;3.97;;
2001;SDS011;1003;48.002;7.788;2023-04-06T06:20:00;6.90;;;4.03;;
2001;SDS011;1003;48.002;7.788;2023-04-06T06:22:27;8.13;;;4.33;;
2001;SDS011;1003;48.002;7.788;2023-04-06T06:24:55;4.83;;;3.80;;
2001;SDS011;1003;48.002;7.788;2023-04-06T06:27:22;6.00;;;3.93;;
2001;SDS011;1003;48.002;7.788;2023-04-06T06:29:49;5.33;;;3.83;;
2001;SDS011;1003;48.002;7.788;2023-04-06T06:32:18;4.33;;;3.60;;
2001;SDS011;1003;48.002;7.788;2023-04-06T06:34:45;6.40;;;3.90;;
2001;SDS011;1003;48.002;7.788;2023-04-06T06:37:12;5.90;;;3.50;;
2001;SDS011;1003;48.002;7.788;2023-04-06T06:39:40;5.10;;;3.80;;
2001;SDS011;1003;48.002;7.788;2023-04-06T06:42:07;6.83;;;3.60;;
2001;SDS011;1003;48.002;7.788;2023-04-06T06:44:34;4.77;;;3.53;;
2001;SDS011;1003;48.002;7.788;2023-04-06T06:47:01;7.17;;;4.00;;
2001;SDS011;1003;48.002;7.788;2023-04-06T06:49:30;8.33;;;4.23;;
2001;SDS011;1003;48.002;7.788;2023-04-06T06:51:57;5.63;;;4.23;;
2001;SDS011;1003;48.002;7.788;2023-04-06T06:54:24;6.20;;;3.83;;
2001;SDS011;1003;48.002;7.788;2023-04-06T06:56:51;5.63;;;4.10;;
2001;SDS011;1003;48.002;7.788;2023-04-06T06:59:19;6.97;;;4.33;;
2001;SDS011;1003;48.002;7.788;2023-04-06T07:01:47;9.00;;;4.10;;
2001;SDS011;1003;48.002;7.788;2023-04-06T07:04:14;6.17;;;3.83;;
2001;SDS011;1003;48.002;7.788;2023-04-06T07:06:42;6.00;;;3.90;;
2001;SDS011;1003;48.002;7.788;2023-04-06T07:09:09;9.93;;;4.17;;
2001;SDS011;1003;48.002;7.788;2023-04-06T07:11:37;5.97;;;4.60;;
2001;SDS011;1003;48.002;7.788;2023-04-06T07:14:04;7.23;;;4.70;;
2001;SDS011;1003;48.002;7.788;2023-04-06T07:16:31;7.17;;;4.90;;
2001;SDS011;1003;48.002;7.788;2023-04-06T07:18:58;6.47;;;4.70;;
2001;SDS011;1003;48.002;7.788;2023-04-06T07:21:26;6.67;;;4.47;;
2001;SDS011;1003;48.002;7.788;2023-04-06T07:23:54;7.07;;;4.87;;
2001;SDS011;1003;48.002;7.788;2023-04-06T07:26:21;6.17;;;4.70;;
2001;SDS011;1003;48.002;7.788;2023-04-06T07:28:48;6.10;;;4.60;;
2001;SDS011;1003;48.002;7.788;2023-04-06T07:31:15;6.80;;;4.83;;
2001;SDS011;1003;48.002;7.788;2023-04-06T07:33:42;5.73;;;4.27;;
2001;SDS011;1003;48.002;7.788;2023-04-06T07:36:10;5.67;;;4.37;;
2001;SDS011;1003;48.002;7.788;2023-04-06T07:38:37;6.33;;;4.67;;
2001;SDS011;1003;48.002;7.788;2023-04-06T07:41:05;8.43;;;4.40;;
2001;SDS011;1003;48.002;7.788;2023-04-06T07:43:32;8.13;;;4.37;;
2001;SDS011;1003;48.002;7.788;2023-04-06T07:46:00;8.53;;;4.53;;
2001;SDS011;1003;48.002;7.788;2023-04-06T07:48:27;7.67;;;4.60;;
2001;SDS011;1003;48.002;7.788;2023-04-06T07:51:00;6.27;;;4.53;;
2001;SDS011;1003;48.002;7.788;2023-04-06T07:53:28;6.27;;;4.03;;
2001;SDS011;1003;48.002;7.788;2023-04-06T07:55:55;5.37;;;4.30;;
2001;SDS011;1003;48.002;7.788;2023-04-06T07:58:25;7.47;;;4.43;;
2001;SDS011;1003;48.002;7.788;2023-04-06T08:00:52;7.87;;;4.63;;
2001;SDS011;1003;48.002;7.788;2023-04-06T08:03:20;6.33;;;4.40;;
2001;SDS011;1003;48.002;7.788;2023-04-06T08:05:50;7.47;;;5.17;;
2001;SDS011;1003;48.002;7.788;2023-04-06T08:08:18;5.10;;;4.20;;
2001;SDS011;1003;48.002;7.788;2023-04-06T08:10:46;6.90;;;4.57;;
2001;SDS011;1003;48.002;7.788;2023-04-06T08:13:13;7.53;;;4.50;;
2001;SDS011;1003;48.002;7.788;2023-04-06T08:15:42;5.93;;;4.73;;
2001;SDS011;1003;48.002;7.788;2023-04-06T08:18:10;6.47;;;4.10;;
2001;SDS011;1003;48.002;7.788;2023-04-06T08:20:37;5.67;;;4.57;;
2001;SDS011;1003;48.002;7.788;2023-04-06T08:23:05;5.50;;;4.50;;
2001;SDS011;1003;48.002;7.788;2023-04-06T08:25:34;5.50;;;3.87;;
2001;SDS011;1003;48.002;7.788;2023-04-06T08:28:02;5.27;;;3.90;;
2001;SDS011;1003;48.002;7.788;2023-04-06T08:30:30;7.37;;;4.43;;
2001;SDS011;1003;48.002;7.788;2023-04-06T08:32:58;6.47;;;4.50;;
2001;SDS011;1003;48.002;7.788;2023-04-06T08:35:25;6.73;;;4.50;;
2001;SDS011;1003;48.002;7.788;2023-04-06T08:37:53;5.73;;;4.30;;
2001;SDS011;1003;48.002;7.788;2023-04-06T08:40:20;5.80;;;3.97;;
2001;SDS011;1003;48.002;7.788;2023-04-06T08:42:49;5.83;;;4.30;;
2001;SDS011;1003;48.002;7.788;2023-04-06T08:45:20;5.53;;;4.37;;
2001;SDS011;1003;48.002;7.788;2023-04-06T08:47:48;7.03;;;4.47;;
2001;SDS011;1003;48.002;7.788;2023-04-06T08:50:18;5.03;;;4.07;;
2001;SDS011;1003;48.002;7.788;2023-04-06T08:52:47;6.77;;;4.70;;
2001;SDS011;1003;48.002;7.788;2023-04-06T08:55:15;5.70;;;4.10;;
2001;SDS011;1003;48.002;7.788;2023-04-06T08:57:42;5.70;;;4.23;;
2001;SDS011;1003;48.002;7.788;2023-04-06T09:00:12;7.57;;;4.47;;
2001;SDS011;1003;48.002;7.788;2023-04-06T09:02:45;7.27;;;5.07;;
2001;SDS011;1003;48.002;7.788;2023-04-06T09:05:13;8.07;;;4.53;;
2001;SDS011;1003;48.002;7.788;2023-04-06T09:07:42;6.40;;;4.50;;
2001;SDS011;1003;48.002;7.788;2023-04-06T09:10:11;4.83;;;3.50;;
2001;SDS011;1003;48.002;7.788;2023-04-06T09:12:38;4.77;;;3.67;;
2001;SDS011;1003;48.002;7.788;2023-04-06T09:15:06;7.03;;;4.93;;
2001;SDS011;1003;48.002;7.788;2023-04-06T09:17:44;5.47;;;4.40;;
2001;SDS011;1003;48.002;7.788;2023-04-06T09:20:11;5.67;;;4.13;;
2001;SDS011;1003;48.002;7.788;2023-04-06T09:22:39;7.20;;;4.93;;
2001;SDS011;1003;48.002;7.788;2023-04-06T09:25:09;7.50;;;4.93;;
2001;SDS011;1003;48.002;7.788;2023-04-06T09:27:46;6.33;;;4.60;;
2001;SDS011;1003;48.002;7.788;2023-04-06T09:30:14;7.07;;;4.97;;
2001;SDS011;1003;48.002;7.788;2023-04-06T09:32:46;6.30;;;4.63;;
2001;SDS011;1003;48.002;7.788;2023-04-06T09:35:16;6.77;;;4.00;;
2001;SDS011;1003;48.002;7.788;2023-04-06T09:37:45;6.07;;;4.73;;
2001;SDS011;1003;48.002;7.788;2023-04-06T09:40:15;5.93;;;4.27;;
2001;SDS011;1003;48.002;7.788;2023-04-06T09:42:44;6.63;;;4.60;;
2001;SDS011;1003;48.002;7.788;2023-04-06T09:45:13;5.73;;;4.20;;
2001;SDS011;1003;48.002;7.788;2023-04-06T09:47:42;7.80;;;4.50;;
2001;SDS011;1003;48.002;7.788;2023-04-06T09:50:11;7.00;;;4.40;;
2001;SDS011;1003;48.002;7.788;2023-04-06T09:52:42;7.90;;;4.90;;
2001;SDS011;1003;48.002;7.788;2023-04-06T09:55:17;7.40;;;4.00;;
2001;SDS011;1003;48.002;7.788;2023-04-06T09:57:57;5.00;;;3.70;;
2001;SDS011;1003;48.002;7.788;2023-04-06T10:00:32;6.07;;;4.57;;
2001;SDS011;1003;48.002;7.788;2023-04-06T10:03:11;7.73;;;5.47;;
2001;SDS011;1003;48.002;7.788;2023-04-06T10:05:54;8.43;;;4.73;;
2001;SDS011;1003;48.002;7.788;2023-04-06T10:08:27;6.80;;;4.73;;
2001;SDS011;1003;48.002;7.788;2023-04-06T10:10:56;6.87;;;4.73;;
2001;SDS011;1003;48.002;7.788;2023-04-06T10:13:25;7.43;;;4.90;;
2001;SDS011;1003;48.002;7.788;2023-04-06T10:15:53;8.03;;;5.17;;
2001;SDS011;1003;48.002;7.788;2023-04-06T10:18:21;7.37;;;4.63;;
2001;SDS011;1003;48.002;7.788;2023-04-06T10:20:49;8.60;;;4.57;;
2001;SDS011;1003;48.002;7.788;2023-04-06T10:23:24;8.30;;;5.33;;
2001;SDS011;1003;48.002;7.788;2023-04-06T10:26:01;6.50;;;4.60;;
2001;SDS011;1003;48.002;7.788;2023-04-06T10:28:30;6.27;;;4.60;;
2001;SDS011;1003;48.002;7.788;2023-04-06T10:31:02;6.57;;;4.23;;
2001;SDS011;1003;48.002;7.788;2023-04-06T10:33:32;5.20;;;4.07;;
2001;SDS011;1003;48.002;7.788;2023-04-06T10:36:08;6.37;;;4.37;;
2001;SDS011;1003;48.002;7.788;2023-04-06T10:38:37;8.70;;;4.90;;
2001;SDS011;1003;48.002;7.788;2023-04-06T10:41:08;6.63;;;4.47;;
2001;SDS011;1003;48.002;7.788;2023-04-06T10:43:37;8.00;;;5.17;;
2001;SDS011;1003;48.002;7.788;2023-04-06T10:46:07;6.63;;;4.73;;
2001;SDS011;1003;48.002;7.788;2023-04-06T10:48:36;6.20;;;4.30;;
2001;SDS011;1003;48.002;7.788;2023-04-06T10:51:07;6.20;;;4.10;;
2001;SDS011;1003;48.002;7.788;2023-04-06T10:53:37;7.00;;;4.43;;
2001;SDS011;1003;48.002;7.788;2023-04-06T10:56:04;5.57;;;3.67;;
2001;SDS011;1003;48.002;7.788;2023-04-06T10:58:38;5.97;;;4.13;;
2001;SDS011;1003;48.002;7.788;2023-04-06T11:01:11;6.63;;;4.27;;
2001;SDS011;1003;48.002;7.788;2023-04-06T11:03:42;6.20;;;4.10;;
2001;SDS011;1003;48.002;7.788;2023-04-06T11:06:10;6.33;;;4.07;;
2001;SDS011;1003;48.002;7.788;2023-04-06T11:08:44;6.43;;;3.97;;
2001;SDS011;1003;48.002;7.788;2023-04-06T11:11:14;5.27;;;3.53;;
2001;SDS011;1003;48.002;7.788;2023-04-06T11:13:44;7.07;;;3.80;;
2001;SDS011;1003;48.002;7.788;2023-04-06T11:16:15;6.13;;;3.70;;
2001;SDS011;1003;48.002;7.788;2023-04-06T11:18:47;4.70;;;3.40;;
2001;SDS011;1003;48.002;7.788;2023-04-06T11:21:19;4.80;;;3.30;;
2001;SDS011;1003;48.002;7.788;2023-04-06T11:24:03;5.43;;;3.80;;
2001;SDS011;1003;48.002;7.788;2023-04-06T11:26:37;5.63;;;3.33;;
2001;SDS011;1003;48.002;7.788;2023-04-06T11:29:10;6.13;;;3.97;;
2001;SDS011;1003;48.002;7.788;2023-04-06T11:31:41;6.07;;;3.70;;
2001;SDS011;1003;48.002;7.788;2023-04-06T11:34:12;7.47;;;3.67;;
2001;SDS011;1003;48.002;7.788;2023-04-06T11:36:43;6.43;;;4.00;;
2001;SDS011;1003;48.002;7.788;2023-04-06T11:39:12;6.20;;;4.30;;
2001;SDS011;1003;48.002;7.788;2023-04-06T11:41:48;5.93;;;4.30;;
2001;SDS011;1003;48.002;7.788;2023-04-06T11:44:26;7.00;;;4.47;;
2001;SDS011;1003;48.002;7.788;2023-04-06T11:46:58;5.77;;;3.90;;
2001;SDS011;1003;48.002;7.788;2023-04-06T11:49:26;6.00;;;4.23;;
2001;SDS011;1003;48.002;7.788;2023-04-06T11:51:54;6.43;;;4.20;;
2001;SDS011;1003;48.002;7.788;2023-04-06T11:54:31;7.67;;;4.30;;
2001;SDS011;1003;48.002;7.788;2023-04-06T11:57:02;6.40;;;4.13;;
2001;SDS011;1003;48.002;7.788;2023-04-06T11:59:31;8.23;;;4.30;;
2001;SDS011;1003;48.002;7.788;2023-04-06T12:01:58;6.13;;;3.87;;
2001;SDS011;1003;48.002;7.788;2023-04-06T12:04:27;5.83;;;4.00;;
2001;SDS011;1003;48.002;7.788;2023-04-06T12:06:55;7.60;;;4.00;;
2001;SDS011;1003;48.002;7.788;2023-04-06T12:09:24;6.03;;;4.10;;
2001;SDS011;1003;48.002;7.788;2023-04-06T12:11:51;6.13;;;4.23;;
2001;SDS011;1003;48.002;7.788;2023-04-06T12:14:20;5.13;;;3.60;;
2001;SDS011;1003;48.002;7.788;2023-04-06T12:16:47;5.83;;;4.40;;
2001;SDS011;1003;48.002;7.788;2023-04-06T12:19:15;4.87;;;3.93;;
2001;SDS011;1003;48.002;7.788;2023-04-06T12:21:42;7.20;;;4.57;;
2001;SDS011;1003;48.002;7.788;2023-04-06T12:24:09;5.37;;;3.70;;
2001;SDS011;1003;48.002;7.788;2023-04-06T12:26:36;6.63;;;4.00;;
2001;SDS011;1003;48.002;7.788;2023-04-06T12:29:04;6.50;;;3.90;;
2001;SDS011;1003;48.002;7.788;2023-04-06T12:31:34;7.57;;;4.13;;
2001;SDS011;1003;48.002;7.788;2023-04-06T12:34:03;5.83;;;4.13;;
2001;SDS011;1003;48.002;7.788;2023-04-06T12:36:31;6.73;;;4.50;;
2001;SDS011;1003;48.002;7.788;2023-04-06T12:38:58;7.03;;;4.50;;
2001;SDS011;1003;48.002;7.788;2023-04-06T12:41:27;6.90;;;4.10;;
2001;SDS011;1003;48.002;7.788;2023-04-06T12:43:55;6.37;;;3.90;;
2001;SDS011;1003;48.002;7.788;2023-04-06T12:46:24;5.77;;;4.00;;
2001;SDS011;1003;48.002;7.788;2023-04-06T12:48:52;5.00;;;3.77;;
2001;SDS011;1003;48.002;7.788;2023-04-06T12:51:20;8.47;;;4.40;;
2001;SDS011;1003;48.002;7.788;2023-04-06T12:53:48;6.53;;;4.23;;
2001;SDS011;1003;48.002;7.788;2023-04-06T12:56:15;6.93;;;4.13;;
2001;SDS011;1003;48.002;7.788;2023-04-06T12:58:46;6.53;;;4.20;;
2001;SDS011;1003;48.002;7.788;2023-04-06T13:01:13;6.07;;;3.63;;
2001;SDS011;1003;48.002;7.788;2023-04-06T13:03:41;5.73;;;4.10;;
2001;SDS011;1003;48.002;7.788;2023-04-06T13:06:10;5.83;;;3.50;;
2001;SDS011;1003;48.002;7.788;2023-04-06T13:08:38;5.30;;;3.97;;
2001;SDS011;1003;48.002;7.788;2023-04-06T13:11:05;6.77;;;4.07;;
2001;SDS011;1003;48.002;7.788;2023-04-06T13:13:33;6.37;;;3.57;;
2001;SDS011;1003;48.002;7.788;2023-04-06T13:16:01;6.73;;;4.07;;
2001;SDS011;1003;48.002;7.788;2023-04-06T13:18:31;5.47;;;3.57;;
2001;SDS011;1003;48.002;7.788;2023-04-06T13:20:59;5.30;;;3.40;;
2001;SDS011;1003;48.002;7.788;2023-04-06T13:23:27;5.47;;;3.80;;
2001;SDS011;1003;48.002;7.788;2023-04-06T13:25:58;5.10;;;3.60;;
2001;SDS011;1003;48.002;7.788;2023-04-06T13:28:26;4.83;;;3.63;;
2001;SDS011;1003;48.002;7.788;2023-04-06T13:30:54;5.27;;;3.53;;
2001;SDS011;1003;48.002;7.788;2023-04-06T13:33:23;5.80;;;3.50;;
2001;SDS011;1003;48.002;7.788;2023-04-06T13:35:51;4.63;;;3.70;;
2001;SDS011;1003;48.002;7.788;2023-04-06T13:38:18;5.83;;;3.20;;
2001;SDS011;1003;48.002;7.788;2023-04-06T13:40:48;5.47;;;3.80;;
2001;SDS011;1003;48.002;7.788;2023-04-06T13:43:15;4.40;;;3.23;;
2001;SDS011;1003;48.002;7.788;2023-04-06T13:45:48;4.37;;;3.43;;
2001;SDS011;1003;48.002;7.788;2023-04-06T13:48:16;5.17;;;3.37;;
2001;SDS011;1003;48.002;7.788;2023-04-06T13:50:43;5.73;;;3.43;;
2001;SDS011;1003;48.002;7.788;2023-04-06T13:53:11;5.20;;;3.53;;
2001;SDS011;1003;48.002;7.788;2023-04-06T13:55:38;5.13;;;3.23;;
2001;SDS011;1003;48.002;7.788;2023-04-06T13:58:07;5.20;;;3.50;;
2001;SDS011;1003;48.002;7.788;2023-04-06T14:00:34;4.57;;;3.40;;
2001;SDS011;1003;48.002;7.788;2023-04-06T14:03:01;5.60;;;3.97;;
2001;SDS011;1003;48.002;7.788;2023-04-06T14:05:30;6.20;;;3.57;;
2001;SDS011;1003;48.002;7.788;2023-04-06T14:07:58;5.37;;;3.87;;
2001;SDS011;1003;48.002;7.788;2023-04-06T14:10:25;6.27;;;4.03;;
2001;SDS011;1003;48.002;7.788;2023-04-06T14:12:52;6.33;;;4.10;;
2001;SDS011;1003;48.002;7.788;2023-04-06T14:15:21;5.97;;;3.50;;
2001;SDS011;1003;48.002;7.788;2023-04-06T14:17:48;4.80;;;3.40;;
2001;SDS011;1003;48.002;7.788;2023-04-06T14:20:16;5.60;;;3.60;;
2001;SDS011;1003;48.002;7.788;2023-04-06T14:22:44;4.70;;;3.27;;
2001;SDS011;1003;48.002;7.788;2023-04-06T14:25:12;5.60;;;3.17;;
2001;SDS011;1003;48.002;7.788;2023-04-06T14:27:39;7.27;;;4.10;;
2001;SDS011;1003;48.002;7.788;2023-04-06T14:30:06;6.30;;;3.73;;
2001;SDS011;1003;48.002;7.788;2023-04-06T14:32:36;4.90;;;3.80;;
2001;SDS011;1003;48.002;7.788;2023-04-06T14:35:04;5.90;;;3.80;;
2001;SDS011;1003;48.002;7.788;2023-04-06T14:37:31;5.43;;;3.80;;
2001;SDS011;1003;48.002;7.788;2023-04-06T14:39:58;6.90;;;3.93;;
2001;SDS011;1003;48.002;7.788;2023-04-06T14:42:25;5.87;;;3.90;;
2001;SDS011;1003;48.002;7.788;2023-04-06T14:44:52;5.23;;;3.93;;
2001;SDS011;1003;48.002;7.788;2023-04-06T14:47:19;7.03;;;4.13;;
2001;SDS011;1003;48.002;7.788;2023-04-06T14:49:50;5.27;;;3.50;;
2001;SDS011;1003;48.002;7.788;2023-04-06T14:52:19;6.27;;;3.53;;
2001;SDS011;1003;48.002;7.788;2023-04-06T14:54:46;5.10;;;3.50;;
2001;SDS011;1003;48.002;7.788;2023-04-06T14:57:14;5.77;;;3.50;;
2001;SDS011;1003;48.002;7.788;2023-04-06T14:59:41;6.83;;;4.27;;
2001;SDS011;1003;48.002;7.788;2023-04-06T15:02:08;6.97;;;4.03;;
2001;SDS011;1003;48.002;7.788;2023-04-06T15:04:38;7.67;;;3.97;;
2001;SDS011;1003;48.002;7.788;2023-04-06T15:07:07;6.67;;;3.97;;
2001;SDS011;1003;48.002;7.788;2023-04-06T15:09:35;5.67;;;3.37;;
2001;SDS011;1003;48.002;7.788;2023-04-06T15:12:02;5.97;;;3.60;;
2001;SDS011;1003;48.002;7.788;2023-04-06T15:14:30;10.70;;;3.87;;
2001;SDS011;1003;48.002;7.788;2023-04-06T15:16:57;5.57;;;3.43;;
2001;SDS011;1003;48.002;7.788;2023-04-06T15:19:24;7.93;;;3.20;;
2001;SDS011;1003;48.002;7.788;2023-04-06T15:21:52;4.37;;;3.37;;